Flight EZE78H

  • Submitted By: Dave Hardy
  • Departure Airport: Norwich (EGSH)
  • Arrival Airport: Aberdeen / Dyce (EGPD)
  • Aircraft: SB20 (G-CDEA)
  • Flight Time: 01.15
  • Date Submitted: 03/24/2009
  • Status: Accepted
Flight Details
Gross Revenue:
(10 load / £ 0.00 per unit
£ 0.00
Fuel Cost:
(3048 fuel used @ 0 / unit)
£ 0.00

Flight Details

  • VATAWARE Link: -

Additional Log Information:

View Log

[2009/03/24 17:19:00]
Flight IATA:EZE78H
Pilot Number:EZE0001
Company ICAO:EZE
Aircraft Type:SB20
PAX:10
Aircraft Registration:SB20
Departing Airport: EGSH
Destination Airport: EGPD
Online: VATSIM
Route:NALAX.UL602.NATEB.UP18.BALID
Flight Level:28000
17:19 Zero fuel Weight: 39783 Lbs, Fuel Weight: 7541 Lbs
17:19 VATSIM:EGSH 242020Z 22007KT 9999 SCT045 07/01 Q1011
17:19 VATSIM:EGPD 242020Z 21004KT CAVOK 05/03 Q0995 NOSIG
17:29 Parking Brakes off
17:30 Com1 Freq=124.15
17:36 VR= 159 Knots
17:36 V2= 166 Knots
17:36 Take-off
17:36 Take off Weight: 47072 Lbs
17:36 Wind: 234 @ 006 Knots Heading: 267
17:36 POS N52 40 33 E001 16 45
17:36 N11 126 N12 126
17:36 Gear Up: 170 Knots
17:36 Flaps: at 170 Knots
17:37 Com1 Freq=125.15
17:37 Com1 Freq=121.15
17:37 Com1 Freq=118.15
17:37 Com1 Freq=119.15
17:37 Com1 Freq=119.22
17:37 Com1 Freq=119.27
17:37 Com1 Freq=119.30
17:37 Com1 Freq=119.35
17:41 Com1 Freq=122.35
17:41 Com1 Freq=122.32
17:41 Com1 Freq=122.17
17:41 Com1 Freq=122.00
17:41 Com1 Freq=122.92
17:41 Com1 Freq=122.87
17:41 Com1 Freq=122.82
17:41 Com1 Freq=122.80
17:46 Flaps:Up at 264 Knots
17:51 Wind:282@037 Knots Heading: 302 Ground Speed: 335 Knots Altitude 14015 ft
18:00 TOC
18:00 Fuel Weight: 5796 Lb
18:06 Wind:301@093 Knots Heading: 319 Ground Speed: 256 Knots Altitude 27831 ft
18:21 Wind:300@108 Knots Heading: 341 Ground Speed: 299 Knots Altitude 27736 ft
18:22 TOD
18:22 Fuel Weight: 5038 Lb
18:36 Wind:272@046 Knots Heading: 339 Ground Speed: 245 Knots Altitude 5439 ft
18:37 Flaps: at 236 Knots
18:39 Flaps: at 198 Knots
18:39 Gear Down: 185 Knots
18:40 Flaps: at 162 Knots
18:41 TouchDown:Rate -346 ft/min Speed: 128 Knots
18:42 VATSIM:EGPD 242150Z 25008KT CAVOK 05/02 Q0994 NOSIG
18:42Land
18:42 Wind:217@003 Knots
18:42 Heading: 336
18:42 Flight Duration: 01:06
18:42 Landing Weight: 44333 Lbs
18:42 POS N57 12 22 W002 12 04
18:44 Parking brakes on
18:44 Block to Block Duration: 01:15
18:44 Final Fuel: 4492 Lbls
18:44 Spent Fuel: 3048 Lbls
18:44 Flight Length: 303 NM
18:44 TOD Land Length: 87 NM

Route Map